Time;durP1;ratioP1;P1;durP2;ratioP2;P2;SDS_P1;SDS_P2;PMS_P1;PMS_P2;Temp;Humidity;BMP_temperature;BMP_pressure;BME280_temperature;BME280_humidity;BME280_pressure;Samples;Min_cycle;Max_cycle;Signal;HPM_P1;HPM_P2
2022/05/06 00:01:46;;;;;;;3.63;3.33;;;19.90;68.70;;;;;;4934996;29;20776;-69
2022/05/06 00:04:14;;;;;;;3.50;3.20;;;19.90;68.70;;;;;;4933906;29;20404;-69
2022/05/06 00:06:40;;;;;;;3.97;3.20;;;19.90;68.60;;;;;;4934622;29;20973;-70
2022/05/06 00:09:06;;;;;;;3.70;3.40;;;19.90;68.70;;;;;;4917688;29;20512;-69
2022/05/06 00:11:38;;;;;;;4.73;3.07;;;19.80;68.60;;;;;;4934651;29;20409;-70
2022/05/06 00:14:06;;;;;;;3.83;3.33;;;19.80;68.60;;;;;;4917776;29;20837;-69
2022/05/06 00:16:37;;;;;;;4.87;3.20;;;19.80;68.60;;;;;;4934796;29;20451;-69
2022/05/06 00:19:05;;;;;;;3.70;3.13;;;19.80;68.60;;;;;;4933780;29;20258;-69
2022/05/06 00:21:36;;;;;;;3.27;2.97;;;19.80;68.60;;;;;;4933596;29;20500;-70
2022/05/06 00:24:08;;;;;;;3.70;3.40;;;19.70;68.60;;;;;;4932787;29;20511;-70
2022/05/06 00:26:34;;;;;;;4.40;3.10;;;19.70;68.60;;;;;;4933408;29;20822;-70
2022/05/06 00:29:02;;;;;;;3.37;3.07;;;19.70;68.70;;;;;;4917609;29;21010;-69
2022/05/06 00:31:30;;;;;;;4.23;3.10;;;19.70;68.70;;;;;;4917684;29;20434;-70
2022/05/06 00:33:58;;;;;;;3.97;3.57;;;19.70;68.70;;;;;;4933511;29;20851;-69
2022/05/06 00:36:27;;;;;;;4.33;3.20;;;19.70;68.70;;;;;;4933303;29;20845;-70
2022/05/06 00:38:55;;;;;;;3.67;3.30;;;19.70;68.70;;;;;;4917459;29;20877;-69
2022/05/06 00:41:21;;;;;;;4.20;2.90;;;19.60;68.60;;;;;;4885848;29;20446;-69
2022/05/06 00:43:50;;;;;;;4.23;3.27;;;19.60;68.60;;;;;;4933918;29;20433;-70
2022/05/06 00:46:16;;;;;;;3.50;3.13;;;19.60;68.60;;;;;;4917432;29;20460;-70
2022/05/06 00:48:45;;;;;;;4.70;3.60;;;19.60;68.60;;;;;;4917247;29;20460;-69
2022/05/06 00:51:19;;;;;;;4.80;3.10;;;19.50;68.60;;;;;;4933003;29;20686;-69
2022/05/06 00:53:47;;;;;;;3.77;3.37;;;19.50;68.50;;;;;;4917435;29;20427;-70
2022/05/06 00:56:17;;;;;;;3.53;3.23;;;19.50;68.50;;;;;;4886301;29;20417;-70
2022/05/06 00:58:44;;;;;;;3.27;2.93;;;19.50;68.60;;;;;;4917124;29;20491;-69
2022/05/06 01:01:13;;;;;;;3.70;3.40;;;19.50;68.60;;;;;;4917381;29;20507;-69
2022/05/06 01:03:41;;;;;;;5.10;3.20;;;19.40;68.40;;;;;;4932924;29;20991;-69
2022/05/06 01:06:16;;;;;;;3.20;2.90;;;19.40;68.50;;;;;;4933044;29;20498;-69
2022/05/06 01:08:52;;;;;;;4.27;3.23;;;19.40;68.50;;;;;;4916602;29;20453;-69
2022/05/06 01:11:22;;;;;;;3.50;3.00;;;19.40;68.50;;;;;;4917602;29;20957;-69
2022/05/06 01:13:55;;;;;;;2.80;2.60;;;19.40;68.50;;;;;;4933134;29;20432;-69
2022/05/06 01:16:33;;;;;;;3.40;3.10;;;19.30;68.50;;;;;;4917188;29;20512;-70
2022/05/06 01:19:06;;;;;;;3.70;3.40;;;19.30;68.50;;;;;;4932922;29;20837;-69
2022/05/06 01:21:38;;;;;;;3.47;2.80;;;19.30;68.50;;;;;;4917219;29;20817;-69
2022/05/06 01:24:06;;;;;;;3.63;3.33;;;19.30;68.60;;;;;;4917222;29;20481;-70
2022/05/06 01:26:56;;;;;;;4.00;2.83;;;19.30;68.60;;;;;;4933916;29;20950;-70
2022/05/06 01:29:29;;;;;;;3.47;3.00;;;19.20;68.50;;;;;;4917274;29;20488;-69
2022/05/06 01:31:58;;;;;;;3.30;3.00;;;19.20;68.50;;;;;;4916748;29;20511;-69
2022/05/06 01:34:29;;;;;;;3.30;3.00;;;19.20;68.50;;;;;;4932838;29;20502;-69
2022/05/06 01:37:00;;;;;;;3.87;3.17;;;19.20;68.50;;;;;;4901427;29;20947;-69
2022/05/06 01:39:34;;;;;;;3.50;3.23;;;19.20;68.50;;;;;;4916869;29;20818;-69
2022/05/06 01:42:06;;;;;;;3.40;3.10;;;19.20;68.50;;;;;;4917146;29;20427;-69
2022/05/06 01:44:47;;;;;;;3.27;2.80;;;19.10;68.40;;;;;;4901119;29;20821;-70
2022/05/06 01:47:23;;;;;;;4.87;3.10;;;19.20;68.60;;;;;;4932908;29;20988;-70
2022/05/06 01:49:56;;;;;;;3.30;3.00;;;19.10;68.40;;;;;;4916702;29;20448;-69
2022/05/06 01:52:24;;;;;;;3.90;3.50;;;19.10;68.40;;;;;;4932288;29;20438;-70
2022/05/06 01:54:52;;;;;;;3.47;3.17;;;19.10;68.50;;;;;;4917089;29;20428;-69
2022/05/06 01:57:22;;;;;;;3.40;2.77;;;19.00;68.40;;;;;;4905372;29;20983;-69
2022/05/06 01:59:48;;;;;;;3.63;2.87;;;19.00;68.40;;;;;;4936005;29;20534;-70
2022/05/06 02:02:22;;;;;;;3.87;3.33;;;19.00;68.40;;;;;;4935999;29;20451;-70
2022/05/06 02:07:38;;;;;;;3.30;3.00;;;19.00;68.40;;;;;;4920068;29;20521;-69
2022/05/06 02:10:04;;;;;;;3.70;3.23;;;18.90;68.30;;;;;;4935884;29;20480;-69
2022/05/06 02:12:39;;;;;;;3.17;2.87;;;18.90;68.30;;;;;;4919964;29;20450;-69
2022/05/06 02:15:17;;;;;;;3.63;2.70;;;18.90;68.30;;;;;;4935780;29;20938;-70
2022/05/06 02:18:24;;;;;;;3.50;3.00;;;18.90;68.30;;;;;;4930146;29;20544;-70
2022/05/06 02:21:10;;;;;;;4.43;3.20;;;18.90;68.40;;;;;;4935548;29;20592;-70
2022/05/06 02:24:19;;;;;;;4.10;2.67;;;18.80;68.20;;;;;;4896928;29;20438;-70
2022/05/06 02:27:12;;;;;;;3.60;3.10;;;18.80;68.20;;;;;;4896430;29;20459;-69
2022/05/06 02:33:12;;;;;;;3.30;3.00;;;18.80;68.30;;;;;;4908362;29;20471;-70
2022/05/06 02:35:25;;;;;;;4.17;3.30;;;18.70;68.20;;;;;;4919895;29;20427;-69
2022/05/06 02:37:55;;;;;;;4.63;3.10;;;18.70;68.20;;;;;;4935459;29;20492;-69
2022/05/06 02:40:22;;;;;;;3.50;3.20;;;18.70;68.20;;;;;;4919403;29;20396;-69
2022/05/06 02:42:48;;;;;;;3.77;3.33;;;18.70;69.10;;;;;;4936638;29;20471;-69
2022/05/06 02:45:16;;;;;;;5.07;3.50;;;18.70;68.30;;;;;;4920211;29;20502;-70
2022/05/06 02:47:46;;;;;;;6.20;3.20;;;18.60;68.10;;;;;;4919524;29;20497;-69
2022/05/06 02:50:15;;;;;;;3.97;2.70;;;18.60;68.10;;;;;;4919543;29;20494;-70
2022/05/06 02:52:41;;;;;;;3.30;2.77;;;18.60;68.00;;;;;;4935153;29;20468;-69
2022/05/06 02:55:10;;;;;;;4.00;3.43;;;18.60;68.00;;;;;;4935213;29;20492;-69
2022/05/06 02:57:39;;;;;;;3.93;3.30;;;18.60;68.00;;;;;;4919422;29;20392;-69
2022/05/06 03:00:09;;;;;;;3.83;3.43;;;18.60;68.00;;;;;;4919275;29;20408;-70
2022/05/06 03:02:40;;;;;;;3.03;2.70;;;18.50;67.80;;;;;;4935106;29;20463;-69
2022/05/06 03:05:10;;;;;;;3.67;3.17;;;18.50;67.80;;;;;;4903810;29;20776;-69
2022/05/06 03:07:39;;;;;;;3.30;3.00;;;18.50;67.90;;;;;;4918005;29;20957;-69
2022/05/06 03:10:06;;;;;;;3.60;3.10;;;18.50;68.70;;;;;;4919268;29;20979;-69
2022/05/06 03:12:35;;;;;;;4.00;3.20;;;18.50;67.90;;;;;;4934823;29;20506;-69
2022/05/06 03:15:10;;;;;;;3.10;2.80;;;18.40;67.80;;;;;;4904440;29;20484;-69
2022/05/06 03:17:47;;;;;;;3.40;3.10;;;18.40;67.80;;;;;;4918707;29;20424;-70
2022/05/06 03:20:15;;;;;;;4.07;3.40;;;18.40;67.80;;;;;;4934871;29;20500;-70
2022/05/06 03:22:47;;;;;;;5.00;2.80;;;18.40;67.80;;;;;;4903207;29;20844;-69
2022/05/06 03:25:20;;;;;;;3.37;3.00;;;18.40;67.70;;;;;;4935972;29;20937;-69
2022/05/06 03:27:59;;;;;;;4.37;2.70;;;18.30;67.60;;;;;;4919387;29;20795;-69
2022/05/06 03:30:38;;;;;;;3.73;3.10;;;18.30;67.60;;;;;;4918566;29;20503;-69
2022/05/06 03:33:30;;;;;;;3.43;3.13;;;18.30;67.60;;;;;;4903335;29;20513;-69
2022/05/06 03:36:01;;;;;;;5.27;3.23;;;18.30;67.60;;;;;;4934374;29;20397;-69
2022/05/06 03:38:35;;;;;;;4.07;3.60;;;18.30;67.70;;;;;;4918775;29;20447;-70
2022/05/06 03:41:04;;;;;;;4.80;3.80;;;18.20;67.60;;;;;;4918662;29;20420;-69
2022/05/06 03:43:31;;;;;;;4.37;3.13;;;18.20;67.60;;;;;;4918679;29;20760;-69
2022/05/06 03:46:09;;;;;;;4.80;3.50;;;18.20;67.60;;;;;;4902787;29;20891;-70
2022/05/06 03:48:39;;;;;;;3.20;2.90;;;18.20;67.60;;;;;;4934216;29;20446;-69
2022/05/06 03:51:20;;;;;;;3.87;3.53;;;18.20;67.60;;;;;;4935243;29;20786;-69
2022/05/06 03:53:55;;;;;;;3.27;2.97;;;18.20;67.60;;;;;;4918630;29;20452;-69
2022/05/06 03:56:27;;;;;;;5.50;3.00;;;18.10;67.60;;;;;;4934152;29;20403;-70
2022/05/06 03:58:58;;;;;;;4.17;3.23;;;18.10;67.60;;;;;;4918469;29;20443;-69
2022/05/06 04:01:30;;;;;;;4.70;3.80;;;18.10;67.60;;;;;;4933917;29;20397;-69
2022/05/06 04:04:01;;;;;;;4.00;3.60;;;18.10;67.60;;;;;;4918353;29;20929;-69
2022/05/06 04:06:33;;;;;;;3.87;2.80;;;18.10;67.60;;;;;;4917829;29;20466;-70
2022/05/06 04:09:00;;;;;;;3.67;3.37;;;18.00;67.60;;;;;;4933890;29;20470;-69
2022/05/06 04:11:33;;;;;;;3.20;2.87;;;18.00;67.60;;;;;;4933978;29;20923;-69
2022/05/06 04:14:05;;;;;;;4.20;3.63;;;18.00;67.50;;;;;;4934991;29;20436;-70
2022/05/06 04:16:38;;;;;;;3.63;3.33;;;18.00;67.50;;;;;;4917953;29;20450;-69
2022/05/06 04:19:12;;;;;;;3.10;2.83;;;18.00;67.50;;;;;;4886902;29;20465;-69
2022/05/06 04:24:26;;;;;;;4.33;3.60;;;17.90;67.30;;;;;;4918035;29;20428;-69
2022/05/06 04:26:57;;;;;;;3.73;3.43;;;17.90;67.40;;;;;;4933231;29;20414;-69
2022/05/06 04:29:26;;;;;;;4.47;3.77;;;17.90;67.40;;;;;;4934701;29;20480;-70
2022/05/06 04:31:52;;;;;;;4.63;3.73;;;17.90;67.40;;;;;;4933440;29;20432;-69
2022/05/06 04:34:19;;;;;;;4.07;3.67;;;17.90;67.50;;;;;;4917989;29;20451;-69
2022/05/06 04:36:49;;;;;;;3.80;3.40;;;17.90;67.50;;;;;;4917345;29;20445;-69
2022/05/06 04:39:21;;;;;;;6.43;3.90;;;17.80;67.40;;;;;;4917518;29;20443;-69
2022/05/06 04:41:54;;;;;;;3.83;3.30;;;17.80;67.40;;;;;;4933524;29;20411;-70
2022/05/06 04:44:29;;;;;;;3.70;3.40;;;17.80;67.40;;;;;;4934237;29;20544;-69
2022/05/06 04:46:56;;;;;;;4.43;3.70;;;17.80;67.50;;;;;;4917642;29;20802;-69
2022/05/06 04:49:22;;;;;;;3.87;3.13;;;17.80;67.50;;;;;;4917430;29;20908;-69
2022/05/06 04:51:51;;;;;;;3.87;3.40;;;17.80;67.50;;;;;;4917353;29;20482;-69
2022/05/06 04:54:17;;;;;;;4.37;3.87;;;17.70;67.40;;;;;;4917651;29;20425;-69
2022/05/06 04:56:53;;;;;;;4.07;3.77;;;17.70;67.40;;;;;;4933031;29;20443;-70
2022/05/06 04:59:31;;;;;;;3.90;3.30;;;17.70;67.50;;;;;;4932198;29;20451;-69
2022/05/06 05:01:57;;;;;;;4.27;3.33;;;17.70;67.60;;;;;;4932780;29;20454;-69
2022/05/06 05:04:27;;;;;;;5.00;4.00;;;17.70;67.60;;;;;;4886472;29;20879;-69
2022/05/06 05:07:00;;;;;;;4.30;3.50;;;17.60;67.60;;;;;;4917369;29;21003;-69
2022/05/06 05:09:26;;;;;;;5.30;3.73;;;17.60;67.60;;;;;;4917289;29;20469;-69
2022/05/06 05:11:54;;;;;;;4.10;3.57;;;17.60;68.50;;;;;;4933017;29;20439;-69
2022/05/06 05:14:29;;;;;;;4.50;3.30;;;17.60;67.80;;;;;;4917775;29;20423;-69
2022/05/06 05:16:56;;;;;;;4.63;3.23;;;17.60;67.90;;;;;;4917160;29;20446;-69
2022/05/06 05:19:29;;;;;;;4.43;4.03;;;17.60;68.10;;;;;;4933124;29;20474;-69
2022/05/06 05:22:00;;;;;;;3.90;3.60;;;17.60;68.10;;;;;;4917302;29;20434;-69
2022/05/06 05:24:27;;;;;;;3.40;3.10;;;17.50;68.00;;;;;;4917086;29;20467;-69
2022/05/06 05:26:55;;;;;;;3.87;3.40;;;17.50;68.10;;;;;;4903440;29;20442;-69
2022/05/06 05:29:22;;;;;;;4.60;3.77;;;17.50;68.70;;;;;;4934179;29;20833;-69
2022/05/06 05:31:48;;;;;;;3.77;3.30;;;17.50;68.30;;;;;;4936277;29;20932;-69
2022/05/06 05:34:18;;;;;;;5.33;4.43;;;17.50;68.40;;;;;;4937060;29;20506;-69
2022/05/06 05:36:49;;;;;;;6.30;3.67;;;17.50;68.50;;;;;;4936979;29;20410;-69
2022/05/06 05:39:18;;;;;;;4.00;3.63;;;17.50;68.50;;;;;;4936421;29;20452;-70
2022/05/06 05:41:45;;;;;;;4.13;3.53;;;17.50;68.60;;;;;;4877904;29;20443;-69
2022/05/06 05:49:45;;;;;;;4.03;3.63;;;17.40;68.80;;;;;;4936522;29;20561;-69
2022/05/06 05:52:13;;;;;;;4.17;3.77;;;17.40;69.00;;;;;;4937603;29;20421;-69
2022/05/06 05:54:42;;;;;;;4.43;4.00;;;17.40;69.20;;;;;;4905358;29;20495;-69
2022/05/06 05:57:09;;;;;;;5.30;3.50;;;17.40;69.20;;;;;;4936825;29;20527;-69
2022/05/06 05:59:39;;;;;;;4.90;4.40;;;17.40;69.30;;;;;;4920646;29;20489;-69
2022/05/06 06:02:11;;;;;;;4.23;3.83;;;17.40;69.40;;;;;;4904691;29;20509;-70
2022/05/06 06:04:39;;;;;;;5.17;4.67;;;17.40;69.60;;;;;;4919321;29;20522;-69
2022/05/06 06:07:07;;;;;;;6.90;4.33;;;17.40;69.70;;;;;;4919502;29;20458;-69
2022/05/06 06:09:37;;;;;;;5.13;4.43;;;17.30;69.80;;;;;;4912854;29;20473;-70
2022/05/06 06:12:11;;;;;;;7.20;5.10;;;17.30;69.90;;;;;;4929324;29;20478;-69
2022/05/06 06:14:41;;;;;;;7.57;4.70;;;17.30;69.90;;;;;;4936129;29;20435;-69
2022/05/06 06:17:15;;;;;;;6.30;4.10;;;17.30;70.10;;;;;;4920704;29;20399;-69
2022/05/06 06:19:43;;;;;;;4.90;4.10;;;17.30;70.30;;;;;;4917135;29;20965;-69
2022/05/06 06:22:10;;;;;;;6.30;4.50;;;17.40;70.50;;;;;;4917069;29;20447;-69
2022/05/06 06:24:50;;;;;;;7.10;4.23;;;17.30;70.40;;;;;;4901378;29;20509;-69
2022/05/06 06:27:19;;;;;;;7.43;5.00;;;17.30;70.40;;;;;;4916467;29;20438;-69
2022/05/06 06:29:54;;;;;;;6.63;4.90;;;17.30;70.60;;;;;;4904577;29;20466;-69
2022/05/06 06:32:22;;;;;;;5.03;4.50;;;17.30;70.50;;;;;;4904361;29;20825;-69
2022/05/06 06:34:51;;;;;;;7.00;5.17;;;17.30;70.50;;;;;;4935699;29;20412;-69
2022/05/06 06:37:17;;;;;;;6.00;4.27;;;17.30;70.60;;;;;;4934501;29;20449;-69
2022/05/06 06:39:49;;;;;;;6.03;4.70;;;17.30;70.50;;;;;;4919513;29;20525;-69
2022/05/06 06:42:16;;;;;;;6.70;4.80;;;17.30;70.60;;;;;;5048201;23;20514;-69
2022/05/06 06:45:07;;;;;;;5.60;4.50;;;17.30;70.70;;;;;;4964287;28;20424;-69
2022/05/06 06:47:56;;;;;;;8.00;4.10;;;17.30;70.70;;;;;;4971956;28;20433;-68
2022/05/06 06:51:01;;;;;;;4.43;4.03;;;17.30;70.70;;;;;;4974398;28;20826;-68
2022/05/06 06:53:36;;;;;;;4.77;4.30;;;17.30;70.50;;;;;;4978308;28;20432;-69
2022/05/06 06:56:02;;;;;;;5.90;4.97;;;17.30;70.60;;;;;;4971940;28;20443;-69
2022/05/06 06:58:28;;;;;;;7.40;4.47;;;17.30;71.00;;;;;;4973017;28;20471;-69
2022/05/06 07:00:57;;;;;;;4.63;4.23;;;17.30;70.80;;;;;;4989884;28;20531;-69
2022/05/06 07:03:23;;;;;;;6.60;4.27;;;17.30;70.70;;;;;;4975140;28;20488;-68
2022/05/06 07:14:08;;;;;;;5.57;5.07;;;17.30;70.50;;;;;;4972778;28;20471;-68
2022/05/06 07:16:39;;;;;;;5.57;4.60;;;17.30;70.50;;;;;;4958591;28;20513;-69
2022/05/06 07:19:06;;;;;;;5.60;4.90;;;17.30;70.50;;;;;;4973764;28;20450;-68
2022/05/06 07:21:34;;;;;;;6.70;5.53;;;17.30;70.60;;;;;;4973537;28;20402;-68
2022/05/06 07:24:05;;;;;;;5.27;4.77;;;17.30;70.80;;;;;;4974645;28;20447;-71
2022/05/06 07:26:31;;;;;;;7.23;5.07;;;17.30;71.00;;;;;;4990410;28;20545;-70
2022/05/06 07:28:59;;;;;;;6.17;5.20;;;17.30;71.10;;;;;;4973892;28;20440;-70
2022/05/06 07:31:28;;;;;;;8.23;5.00;;;17.30;71.10;;;;;;4975527;28;20449;-70
2022/05/06 07:34:00;;;;;;;7.20;5.13;;;17.40;71.30;;;;;;4974446;28;20424;-71
2022/05/06 07:36:29;;;;;;;6.70;6.00;;;17.40;71.30;;;;;;4974719;28;20432;-71
2022/05/06 07:38:55;;;;;;;5.90;5.23;;;17.40;71.30;;;;;;4975505;28;20532;-71
2022/05/06 07:41:23;;;;;;;7.20;5.43;;;17.40;71.40;;;;;;4975400;28;20451;-71
2022/05/06 07:43:52;;;;;;;8.37;6.10;;;17.40;71.50;;;;;;4958319;28;20499;-70
2022/05/06 07:46:23;;;;;;;7.10;5.50;;;17.40;71.70;;;;;;4974485;28;20993;-71
2022/05/06 07:48:51;;;;;;;6.03;4.80;;;17.40;71.70;;;;;;4973921;28;20524;-70
2022/05/06 07:51:19;;;;;;;6.67;5.10;;;17.40;71.80;;;;;;4973616;28;20418;-71
2022/05/06 07:53:45;;;;;;;8.23;6.50;;;17.40;71.90;;;;;;4973601;28;20423;-70
2022/05/06 07:56:17;;;;;;;6.23;5.30;;;17.50;72.10;;;;;;4974855;28;20806;-71
2022/05/06 07:58:46;;;;;;;5.93;5.33;;;17.50;72.00;;;;;;4973747;28;20539;-70
2022/05/06 08:01:13;;;;;;;7.47;5.70;;;17.50;72.10;;;;;;4974913;28;20807;-71
2022/05/06 08:06:31;;;;;;;7.83;5.63;;;17.50;72.10;;;;;;4974819;28;20431;-71
2022/05/06 08:08:57;;;;;;;9.20;5.70;;;17.50;72.10;;;;;;4989275;28;20877;-70
2022/05/06 08:11:25;;;;;;;8.73;5.70;;;17.60;72.30;;;;;;4973413;28;20436;-70
2022/05/06 08:13:57;;;;;;;8.63;6.03;;;17.50;72.20;;;;;;4973547;28;20422;-70
2022/05/06 08:16:28;;;;;;;7.20;5.93;;;17.60;72.30;;;;;;4974372;28;21212;-70
2022/05/06 08:18:56;;;;;;;7.80;5.50;;;17.60;72.40;;;;;;4974284;28;20424;-71
2022/05/06 08:21:22;;;;;;;9.83;7.20;;;17.60;72.30;;;;;;4972849;28;20436;-71
2022/05/06 08:23:55;;;;;;;6.77;5.47;;;17.60;72.30;;;;;;4989367;28;20400;-70
2022/05/06 08:26:28;;;;;;;6.77;5.10;;;17.60;72.60;;;;;;4973104;28;20435;-71
2022/05/06 08:28:56;;;;;;;6.10;5.50;;;17.60;72.30;;;;;;4974384;28;20455;-70
2022/05/06 08:31:22;;;;;;;8.40;6.00;;;17.60;72.40;;;;;;4972998;28;20424;-71
2022/05/06 08:33:50;;;;;;;7.83;5.93;;;17.70;72.70;;;;;;4957374;28;20917;-70
2022/05/06 08:36:19;;;;;;;8.37;6.90;;;17.70;72.80;;;;;;4975558;28;20481;-70
2022/05/06 08:38:45;;;;;;;8.13;6.70;;;17.70;72.70;;;;;;4976137;28;21024;-70
2022/05/06 08:41:12;;;;;;;8.17;6.17;;;17.70;73.00;;;;;;4992384;28;20463;-71
2022/05/06 08:43:40;;;;;;;8.10;6.57;;;17.80;73.20;;;;;;4992386;28;20417;-70
2022/05/06 08:51:44;;;;;;;9.10;7.07;;;17.90;73.30;;;;;;4972847;28;20496;-71
2022/05/06 08:54:11;;;;;;;9.90;6.57;;;17.90;73.50;;;;;;4956853;28;21042;-70
2022/05/06 08:56:44;;;;;;;9.13;6.60;;;17.90;73.60;;;;;;4973940;28;20469;-71
2022/05/06 08:59:15;;;;;;;7.20;6.50;;;17.90;73.80;;;;;;4972759;28;20460;-70
2022/05/06 09:01:44;;;;;;;8.03;6.47;;;18.00;74.20;;;;;;4972987;28;20431;-70
2022/05/06 09:04:12;;;;;;;7.60;6.13;;;18.00;74.20;;;;;;4972797;28;20244;-71
2022/05/06 09:06:41;;;;;;;8.97;6.20;;;18.00;74.00;;;;;;4972288;28;20528;-71
2022/05/06 09:09:18;;;;;;;8.20;6.60;;;18.00;74.10;;;;;;4959835;28;20540;-71
2022/05/06 09:17:28;;;;;;;8.63;7.17;;;18.10;74.20;;;;;;4988443;28;20485;-71
2022/05/06 09:19:54;;;;;;;8.60;6.90;;;18.20;74.40;;;;;;4972482;28;20770;-71
2022/05/06 09:22:27;;;;;;;6.97;6.30;;;18.20;74.40;;;;;;4973792;28;20448;-71
2022/05/06 09:24:58;;;;;;;9.83;6.70;;;18.20;74.40;;;;;;4971028;28;20437;-71
2022/05/06 09:27:24;;;;;;;10.60;8.13;;;18.20;74.40;;;;;;4956760;28;20997;-71
2022/05/06 09:29:57;;;;;;;9.80;7.03;;;18.30;74.50;;;;;;4973776;28;20449;-70
2022/05/06 09:32:24;;;;;;;7.93;6.23;;;18.30;74.60;;;;;;4972448;28;20405;-71
2022/05/06 09:35:18;;;;;;;8.70;7.20;;;18.30;74.60;;;;;;4972725;28;20426;-71
2022/05/06 09:37:46;;;;;;;8.13;6.33;;;18.40;74.60;;;;;;4963263;28;20493;-70
2022/05/06 09:40:15;;;;;;;7.63;6.83;;;18.40;74.50;;;;;;4972669;28;20516;-70
2022/05/06 09:42:56;;;;;;;7.43;6.70;;;18.50;74.70;;;;;;4973425;28;20473;-71
2022/05/06 09:45:39;;;;;;;8.80;7.03;;;18.50;74.60;;;;;;4972491;28;20431;-71
2022/05/06 09:48:13;;;;;;;7.87;7.07;;;18.50;74.40;;;;;;4972211;28;20491;-70
2022/05/06 09:50:42;;;;;;;6.93;6.17;;;18.60;74.40;;;;;;4972207;28;20904;-70
2022/05/06 09:53:11;;;;;;;10.37;6.90;;;18.60;74.50;;;;;;4972754;28;20916;-72
2022/05/06 09:55:44;;;;;;;9.03;6.97;;;18.60;74.50;;;;;;4972895;28;20482;-72
2022/05/06 09:58:11;;;;;;;10.53;6.87;;;18.70;74.60;;;;;;4973044;28;20440;-70
2022/05/06 10:00:38;;;;;;;8.30;7.03;;;18.70;74.50;;;;;;4973171;28;20467;-69
2022/05/06 10:03:05;;;;;;;7.87;7.03;;;18.80;74.60;;;;;;4971955;28;21023;-70
2022/05/06 10:05:34;;;;;;;13.57;9.73;;;18.80;74.60;;;;;;4971691;28;20415;-70
2022/05/06 10:08:08;;;;;;;9.93;8.70;;;18.90;74.70;;;;;;4973391;28;20461;-70
2022/05/06 10:10:41;;;;;;;10.47;8.77;;;18.90;74.70;;;;;;4971659;28;20493;-70
2022/05/06 10:13:19;;;;;;;12.17;8.70;;;18.90;74.80;;;;;;4979778;28;20429;-70
2022/05/06 10:15:51;;;;;;;10.40;9.27;;;19.00;74.80;;;;;;4991185;28;20397;-70
2022/05/06 10:18:41;;;;;;;13.47;9.57;;;19.00;74.80;;;;;;4993288;28;20859;-70
2022/05/06 10:21:11;;;;;;;15.63;12.10;;;19.10;74.70;;;;;;4963661;28;20442;-70
2022/05/06 10:23:48;;;;;;;14.77;11.50;;;19.10;74.70;;;;;;4975234;28;20414;-70
2022/05/06 10:26:33;;;;;;;15.90;11.97;;;19.10;74.90;;;;;;4975300;28;20549;-70
2022/05/06 10:35:04;;;;;;;16.63;10.73;;;19.20;74.90;;;;;;4959003;28;20799;-70
2022/05/06 10:37:37;;;;;;;13.90;11.10;;;19.30;74.90;;;;;;4996417;28;20447;-68
2022/05/06 10:40:24;;;;;;;13.30;10.03;;;19.30;74.70;;;;;;4965405;28;20608;-69
2022/05/06 10:42:53;;;;;;;12.07;9.90;;;19.40;74.60;;;;;;4975591;28;20426;-68
2022/05/06 10:45:26;;;;;;;14.13;11.07;;;19.40;74.50;;;;;;4975456;28;20406;-68
2022/05/06 10:47:55;;;;;;;12.43;10.33;;;19.40;74.40;;;;;;4974083;28;20508;-68
2022/05/06 10:50:25;;;;;;;10.80;9.00;;;19.50;74.30;;;;;;4974274;28;20462;-68
2022/05/06 10:52:52;;;;;;;14.20;11.33;;;19.50;74.20;;;;;;4974387;28;20782;-69
2022/05/06 10:55:20;;;;;;;11.70;10.50;;;19.50;74.20;;;;;;4974209;28;20452;-68
2022/05/06 10:57:49;;;;;;;12.00;10.60;;;19.60;74.10;;;;;;4957980;28;20526;-68
2022/05/06 11:00:15;;;;;;;17.87;11.23;;;19.60;74.10;;;;;;4974176;28;20790;-68
2022/05/06 11:02:45;;;;;;;16.30;12.47;;;19.70;74.20;;;;;;4975230;28;20422;-69
2022/05/06 11:05:20;;;;;;;17.50;11.67;;;19.70;74.20;;;;;;4979031;28;20422;-68
2022/05/06 11:07:49;;;;;;;15.20;12.83;;;19.70;74.20;;;;;;4978979;28;20445;-69
2022/05/06 11:10:26;;;;;;;12.60;10.60;;;19.70;74.30;;;;;;4988048;28;21149;-69
2022/05/06 11:12:57;;;;;;;14.20;10.30;;;19.80;74.40;;;;;;4974245;28;20462;-70
2022/05/06 11:15:30;;;;;;;12.37;9.90;;;19.80;74.30;;;;;;4958314;28;20764;-73
2022/05/06 11:17:59;;;;;;;13.10;10.80;;;19.80;74.30;;;;;;4973582;28;20838;-73
2022/05/06 11:20:27;;;;;;;12.47;10.43;;;19.90;74.30;;;;;;4975310;28;20420;-74
2022/05/06 11:23:09;;;;;;;11.60;9.43;;;20.00;74.40;;;;;;4981002;28;20427;-75
2022/05/06 11:25:48;;;;;;;13.40;9.60;;;20.00;74.20;;;;;;4973007;28;20853;-75
2022/05/06 11:28:15;;;;;;;12.83;10.73;;;20.00;74.00;;;;;;4972140;28;20468;-74
2022/05/06 11:30:46;;;;;;;13.10;10.37;;;20.10;74.10;;;;;;4982241;28;20598;-74
2022/05/06 11:33:24;;;;;;;11.03;9.83;;;20.10;73.90;;;;;;4993136;28;20403;-73
2022/05/06 11:35:52;;;;;;;12.90;10.63;;;20.20;73.90;;;;;;4957830;28;20425;-74
2022/05/06 11:38:30;;;;;;;11.77;8.77;;;20.20;73.80;;;;;;4983142;28;20821;-74
2022/05/06 11:41:09;;;;;;;10.20;9.20;;;20.20;73.60;;;;;;4992806;28;20419;-74
2022/05/06 11:43:36;;;;;;;8.80;7.80;;;20.30;73.60;;;;;;4992479;28;20458;-73
2022/05/06 11:48:52;;;;;;;9.60;7.87;;;20.40;73.50;;;;;;4994056;28;20526;-74
2022/05/06 11:51:23;;;;;;;10.37;9.27;;;20.40;73.40;;;;;;4993970;28;20439;-74
2022/05/06 11:53:54;;;;;;;10.17;9.07;;;20.40;73.40;;;;;;4992824;28;20427;-74
2022/05/06 11:56:25;;;;;;;10.13;8.77;;;20.50;73.40;;;;;;4976307;28;20951;-73
2022/05/06 11:59:00;;;;;;;9.83;8.90;;;20.50;73.20;;;;;;4992831;28;20453;-74
2022/05/06 12:01:30;;;;;;;12.00;10.60;;;20.50;73.10;;;;;;4993834;28;20407;-74
2022/05/06 12:04:06;;;;;;;12.20;10.10;;;20.60;73.20;;;;;;4992804;28;20529;-74
2022/05/06 12:06:32;;;;;;;10.97;9.87;;;20.60;73.10;;;;;;5008911;28;20447;-74
2022/05/06 12:09:14;;;;;;;11.07;9.93;;;20.60;73.00;;;;;;4993265;28;20531;-74
2022/05/06 12:11:41;;;;;;;12.80;9.73;;;20.70;73.00;;;;;;5008865;28;20406;-74
2022/05/06 12:14:08;;;;;;;13.60;10.87;;;20.70;72.80;;;;;;4992414;28;20419;-74
2022/05/06 12:16:35;;;;;;;14.43;11.17;;;20.70;72.70;;;;;;4992533;28;20431;-74
2022/05/06 12:19:01;;;;;;;13.40;10.57;;;20.80;72.60;;;;;;5008500;28;20462;-74
2022/05/06 12:21:33;;;;;;;15.10;12.27;;;20.80;72.10;;;;;;4991212;28;20940;-74
2022/05/06 12:24:01;;;;;;;13.60;11.70;;;20.80;71.90;;;;;;4990445;28;20530;-75
2022/05/06 12:26:38;;;;;;;12.27;10.97;;;20.90;71.70;;;;;;4973980;28;20544;-74
2022/05/06 12:29:21;;;;;;;12.60;11.40;;;20.90;71.40;;;;;;4973723;28;21003;-74
2022/05/06 12:31:48;;;;;;;14.27;10.73;;;20.90;71.20;;;;;;4992158;28;20456;-74
2022/05/06 12:34:16;;;;;;;12.27;10.90;;;21.00;71.30;;;;;;4972552;28;20437;-74
2022/05/06 12:36:46;;;;;;;12.73;10.57;;;21.00;71.30;;;;;;4987775;28;20519;-74
2022/05/06 12:39:21;;;;;;;12.80;10.20;;;21.00;71.00;;;;;;4975466;28;20456;-74
2022/05/06 12:41:51;;;;;;;11.47;9.87;;;21.10;71.00;;;;;;4957983;28;20460;-74
2022/05/06 12:44:27;;;;;;;10.47;9.37;;;21.10;70.80;;;;;;4972233;28;20412;-74
2022/05/06 12:46:53;;;;;;;10.70;8.97;;;21.10;71.00;;;;;;4972360;28;20440;-74
2022/05/06 12:49:42;;;;;;;12.93;9.67;;;21.20;71.00;;;;;;4973449;28;20474;-74
2022/05/06 12:52:09;;;;;;;12.50;10.50;;;21.20;71.00;;;;;;4972055;28;20550;-75
2022/05/06 12:54:38;;;;;;;14.20;10.60;;;21.20;70.90;;;;;;4988190;28;20426;-74
2022/05/06 12:57:08;;;;;;;11.90;10.20;;;21.30;71.10;;;;;;4954749;28;20449;-74
2022/05/06 12:59:34;;;;;;;13.43;9.30;;;21.30;70.90;;;;;;4972052;28;20457;-74
2022/05/06 13:02:04;;;;;;;10.93;9.57;;;21.30;70.80;;;;;;4972936;28;20436;-74
2022/05/06 13:04:30;;;;;;;11.53;9.80;;;21.40;70.90;;;;;;4972532;28;20428;-74
2022/05/06 13:06:58;;;;;;;15.03;10.40;;;21.40;70.90;;;;;;4956138;28;20526;-74
2022/05/06 13:09:24;;;;;;;10.57;9.47;;;21.50;70.90;;;;;;4945102;28;20835;-74
2022/05/06 13:11:49;;;;;;;10.20;9.10;;;21.50;70.90;;;;;;4982485;28;20420;-74
2022/05/06 13:14:21;;;;;;;9.90;8.90;;;21.50;70.90;;;;;;4971984;28;20854;-74
2022/05/06 13:16:52;;;;;;;12.57;10.03;;;21.60;70.90;;;;;;4973251;28;20876;-74
2022/05/06 13:19:18;;;;;;;9.50;8.50;;;21.60;70.90;;;;;;4956010;28;20979;-74
2022/05/06 13:21:46;;;;;;;11.97;9.00;;;21.70;71.00;;;;;;4956266;28;20432;-74
2022/05/06 13:24:12;;;;;;;11.07;9.87;;;21.70;70.90;;;;;;4971350;28;20429;-74
2022/05/06 13:26:38;;;;;;;9.80;8.73;;;21.70;70.70;;;;;;4973214;28;20443;-74
2022/05/06 13:29:08;;;;;;;11.63;7.40;;;21.70;70.40;;;;;;4971839;28;20603;-74
2022/05/06 13:31:34;;;;;;;9.67;8.70;;;21.80;70.60;;;;;;4972054;28;20425;-74
2022/05/06 13:34:00;;;;;;;9.90;8.90;;;21.80;70.60;;;;;;4972675;28;20450;-74
2022/05/06 13:36:28;;;;;;;11.67;10.00;;;21.80;70.30;;;;;;4971941;28;20583;-74
2022/05/06 13:38:54;;;;;;;10.83;9.20;;;21.90;70.10;;;;;;4983497;28;20477;-74
2022/05/06 13:41:23;;;;;;;12.00;10.07;;;21.90;69.80;;;;;;4972008;28;20416;-74
2022/05/06 13:43:49;;;;;;;12.13;10.07;;;22.00;69.70;;;;;;4972687;28;20523;-74
2022/05/06 13:46:16;;;;;;;11.60;10.40;;;22.00;69.40;;;;;;4987995;28;20441;-74
2022/05/06 13:48:44;;;;;;;9.90;8.90;;;22.00;69.40;;;;;;4964697;28;20450;-74